sensor_id;sensor_type;location;lat;lon;timestamp;pressure;altitude;pressure_sealevel;temperature;humidity
73063;BME280;61230;46.328;19.972;2023-09-19T00:00:44;100208.81;;;21.98;65.56
73063;BME280;61230;46.328;19.972;2023-09-19T00:03:15;100210.91;;;21.96;65.87
73063;BME280;61230;46.328;19.972;2023-09-19T00:05:43;100174.16;;;21.71;65.88
73063;BME280;61230;46.328;19.972;2023-09-19T00:08:12;100204.94;;;21.94;65.66
73063;BME280;61230;46.328;19.972;2023-09-19T00:10:43;100208.41;;;21.94;65.68
73063;BME280;61230;46.328;19.972;2023-09-19T00:13:11;100175.22;;;21.70;65.74
73063;BME280;61230;46.328;19.972;2023-09-19T00:15:45;100214.22;;;21.91;65.66
73063;BME280;61230;46.328;19.972;2023-09-19T00:18:20;100207.00;;;21.92;65.73
73063;BME280;61230;46.328;19.972;2023-09-19T00:20:50;100211.78;;;21.90;65.69
73063;BME280;61230;46.328;19.972;2023-09-19T00:23:20;100206.63;;;21.88;65.84
73063;BME280;61230;46.328;19.972;2023-09-19T00:25:48;100199.63;;;21.87;65.76
73063;BME280;61230;46.328;19.972;2023-09-19T00:28:17;100204.38;;;21.85;65.92
73063;BME280;61230;46.328;19.972;2023-09-19T00:30:46;100208.06;;;21.84;65.96
73063;BME280;61230;46.328;19.972;2023-09-19T00:33:21;100203.97;;;21.82;66.22
73063;BME280;61230;46.328;19.972;2023-09-19T00:35:53;100205.84;;;21.81;66.22
73063;BME280;61230;46.328;19.972;2023-09-19T00:38:21;100198.22;;;21.78;66.45
73063;BME280;61230;46.328;19.972;2023-09-19T00:40:52;100204.62;;;21.77;66.66
73063;BME280;61230;46.328;19.972;2023-09-19T00:43:20;100154.75;;;21.51;66.81
73063;BME280;61230;46.328;19.972;2023-09-19T00:45:51;100198.28;;;21.71;66.91
73063;BME280;61230;46.328;19.972;2023-09-19T00:48:21;100193.97;;;21.70;67.03
73063;BME280;61230;46.328;19.972;2023-09-19T00:50:50;100196.84;;;21.69;67.19
73063;BME280;61230;46.328;19.972;2023-09-19T00:53:22;100186.97;;;21.69;67.11
73063;BME280;61230;46.328;19.972;2023-09-19T00:55:51;100184.28;;;21.69;67.19
73063;BME280;61230;46.328;19.972;2023-09-19T00:58:19;100194.41;;;21.67;67.33
73063;BME280;61230;46.328;19.972;2023-09-19T01:00:48;100188.66;;;21.64;67.43
73063;BME280;61230;46.328;19.972;2023-09-19T01:03:17;100186.56;;;21.66;67.34
73063;BME280;61230;46.328;19.972;2023-09-19T01:05:46;100182.28;;;21.65;67.51
73063;BME280;61230;46.328;19.972;2023-09-19T01:08:13;100192.16;;;21.64;67.57
73063;BME280;61230;46.328;19.972;2023-09-19T01:16:42;100178.97;;;21.63;67.53
73063;BME280;61230;46.328;19.972;2023-09-19T01:22:26;100167.66;;;21.61;67.63
73063;BME280;61230;46.328;19.972;2023-09-19T01:30:36;100170.59;;;21.59;67.77
73063;BME280;61230;46.328;19.972;2023-09-19T01:33:07;100175.31;;;21.57;67.92
73063;BME280;61230;46.328;19.972;2023-09-19T01:35:38;100178.41;;;21.54;68.07
73063;BME280;61230;46.328;19.972;2023-09-19T01:38:06;100175.75;;;21.54;67.92
73063;BME280;61230;46.328;19.972;2023-09-19T01:40:57;100176.56;;;21.55;68.14
73063;BME280;61230;46.328;19.972;2023-09-19T01:43:36;100173.31;;;21.53;68.10
73063;BME280;61230;46.328;19.972;2023-09-19T01:46:24;100182.16;;;21.53;68.35
73063;BME280;61230;46.328;19.972;2023-09-19T01:49:22;100193.91;;;21.52;68.38
73063;BME280;61230;46.328;19.972;2023-09-19T01:52:12;100188.16;;;21.49;68.64
73063;BME280;61230;46.328;19.972;2023-09-19T01:54:46;100188.16;;;21.49;68.56
73063;BME280;61230;46.328;19.972;2023-09-19T01:57:29;100184.88;;;21.47;68.74
73063;BME280;61230;46.328;19.972;2023-09-19T02:00:06;100182.44;;;21.45;68.80
73063;BME280;61230;46.328;19.972;2023-09-19T02:02:42;100201.97;;;21.46;69.02
73063;BME280;61230;46.328;19.972;2023-09-19T02:05:12;100182.47;;;21.39;69.63
73063;BME280;61230;46.328;19.972;2023-09-19T02:07:40;100195.63;;;21.40;70.20
73063;BME280;61230;46.328;19.972;2023-09-19T02:10:08;100188.84;;;21.38;70.04
73063;BME280;61230;46.328;19.972;2023-09-19T02:12:37;100188.25;;;21.36;70.24
73063;BME280;61230;46.328;19.972;2023-09-19T02:15:06;100190.34;;;21.34;70.29
73063;BME280;61230;46.328;19.972;2023-09-19T02:17:34;100192.38;;;21.32;70.09
73063;BME280;61230;46.328;19.972;2023-09-19T02:20:02;100193.44;;;21.31;69.80
73063;BME280;61230;46.328;19.972;2023-09-19T02:22:38;100198.16;;;21.29;70.29
73063;BME280;61230;46.328;19.972;2023-09-19T02:25:06;100195.47;;;21.29;69.20
73063;BME280;61230;46.328;19.972;2023-09-19T02:27:36;100185.66;;;21.23;69.04
73063;BME280;61230;46.328;19.972;2023-09-19T02:30:05;100199.22;;;21.28;69.09
73063;BME280;61230;46.328;19.972;2023-09-19T02:32:33;100179.87;;;21.26;69.40
73063;BME280;61230;46.328;19.972;2023-09-19T02:35:07;100186.25;;;21.25;69.62
73063;BME280;61230;46.328;19.972;2023-09-19T02:37:34;100190.19;;;21.22;69.57
73063;BME280;61230;46.328;19.972;2023-09-19T02:40:04;100182.59;;;21.19;69.90
73063;BME280;61230;46.328;19.972;2023-09-19T02:42:53;100190.03;;;21.17;69.85
73063;BME280;61230;46.328;19.972;2023-09-19T02:45:22;100187.78;;;21.14;69.79
73063;BME280;61230;46.328;19.972;2023-09-19T02:47:51;100193.13;;;21.14;69.44
73063;BME280;61230;46.328;19.972;2023-09-19T02:50:19;100160.28;;;20.94;69.07
73063;BME280;61230;46.328;19.972;2023-09-19T02:52:47;100192.91;;;21.15;69.22
73063;BME280;61230;46.328;19.972;2023-09-19T02:55:17;100201.16;;;21.14;69.36
73063;BME280;61230;46.328;19.972;2023-09-19T02:57:48;100181.44;;;21.08;69.48
73063;BME280;61230;46.328;19.972;2023-09-19T03:00:17;100186.34;;;21.11;69.23
73063;BME280;61230;46.328;19.972;2023-09-19T03:02:49;100172.37;;;21.03;69.70
73063;BME280;61230;46.328;19.972;2023-09-19T03:05:18;100184.09;;;21.08;69.67
73063;BME280;61230;46.328;19.972;2023-09-19T03:07:49;100189.63;;;21.07;69.83
73063;BME280;61230;46.328;19.972;2023-09-19T03:10:21;100179.78;;;21.07;69.74
73063;BME280;61230;46.328;19.972;2023-09-19T03:12:49;100163.88;;;21.06;69.93
73063;BME280;61230;46.328;19.972;2023-09-19T03:15:17;100166.78;;;21.04;69.90
73063;BME280;61230;46.328;19.972;2023-09-19T03:17:47;100157.12;;;21.03;69.71
73063;BME280;61230;46.328;19.972;2023-09-19T03:20:16;100163.53;;;21.02;69.80
73063;BME280;61230;46.328;19.972;2023-09-19T03:22:47;100161.66;;;21.03;69.85
73063;BME280;61230;46.328;19.972;2023-09-19T03:25:16;100162.47;;;21.03;69.62
73063;BME280;61230;46.328;19.972;2023-09-19T03:27:45;100165.38;;;21.02;69.71
73063;BME280;61230;46.328;19.972;2023-09-19T03:30:13;100171.75;;;21.01;69.60
73063;BME280;61230;46.328;19.972;2023-09-19T03:32:45;100170.13;;;21.00;69.43
73063;BME280;61230;46.328;19.972;2023-09-19T03:35:14;100177.31;;;20.99;69.23
73063;BME280;61230;46.328;19.972;2023-09-19T03:37:43;100166.00;;;20.97;69.45
73063;BME280;61230;46.328;19.972;2023-09-19T03:40:11;100157.78;;;20.99;69.16
73063;BME280;61230;46.328;19.972;2023-09-19T03:42:42;100148.53;;;20.95;70.51
73063;BME280;61230;46.328;19.972;2023-09-19T03:45:11;100147.53;;;20.89;72.37
73063;BME280;61230;46.328;19.972;2023-09-19T03:47:40;100129.06;;;20.81;73.30
73063;BME280;61230;46.328;19.972;2023-09-19T03:50:08;100128.06;;;20.76;72.83
73063;BME280;61230;46.328;19.972;2023-09-19T03:52:39;100129.53;;;20.72;73.28
73063;BME280;61230;46.328;19.972;2023-09-19T03:55:07;100136.72;;;20.71;72.78
73063;BME280;61230;46.328;19.972;2023-09-19T03:57:37;100143.31;;;20.69;72.54
73063;BME280;61230;46.328;19.972;2023-09-19T04:00:06;100145.37;;;20.67;72.75
73063;BME280;61230;46.328;19.972;2023-09-19T04:02:39;100097.56;;;20.45;72.45
73063;BME280;61230;46.328;19.972;2023-09-19T04:05:07;100092.41;;;20.44;72.28
73063;BME280;61230;46.328;19.972;2023-09-19T04:07:35;100132.63;;;20.69;72.06
73063;BME280;61230;46.328;19.972;2023-09-19T04:10:03;100137.97;;;20.69;72.36
73063;BME280;61230;46.328;19.972;2023-09-19T04:12:31;100143.94;;;20.71;72.29
73063;BME280;61230;46.328;19.972;2023-09-19T04:15:00;100132.66;;;20.62;72.61
73063;BME280;61230;46.328;19.972;2023-09-19T04:17:28;100141.03;;;20.72;72.51
73063;BME280;61230;46.328;19.972;2023-09-19T04:19:56;100134.47;;;20.68;72.66
73063;BME280;61230;46.328;19.972;2023-09-19T04:22:24;100152.13;;;20.76;72.83
73063;BME280;61230;46.328;19.972;2023-09-19T04:24:51;100147.00;;;20.74;73.04
73063;BME280;61230;46.328;19.972;2023-09-19T04:27:19;100148.03;;;20.73;73.28
73063;BME280;61230;46.328;19.972;2023-09-19T04:29:46;100149.06;;;20.72;73.64
73063;BME280;61230;46.328;19.972;2023-09-19T04:32:14;100149.28;;;20.71;74.10
73063;BME280;61230;46.328;19.972;2023-09-19T04:34:43;100158.31;;;20.70;74.64
73063;BME280;61230;46.328;19.972;2023-09-19T04:37:11;100150.53;;;20.68;75.59
73063;BME280;61230;46.328;19.972;2023-09-19T04:39:38;100148.28;;;20.65;78.14
73063;BME280;61230;46.328;19.972;2023-09-19T04:42:06;100154.88;;;20.62;80.95
73063;BME280;61230;46.328;19.972;2023-09-19T04:44:34;100158.59;;;20.55;84.78
73063;BME280;61230;46.328;19.972;2023-09-19T04:47:01;100151.63;;;20.47;87.37
73063;BME280;61230;46.328;19.972;2023-09-19T04:49:29;100159.88;;;20.46;88.67
73063;BME280;61230;46.328;19.972;2023-09-19T04:51:57;100154.53;;;20.39;89.74
73063;BME280;61230;46.328;19.972;2023-09-19T04:54:24;100162.16;;;20.36;90.79
73063;BME280;61230;46.328;19.972;2023-09-19T04:56:52;100152.94;;;20.32;91.45
73063;BME280;61230;46.328;19.972;2023-09-19T04:59:19;100158.87;;;20.27;92.26
73063;BME280;61230;46.328;19.972;2023-09-19T05:01:47;100158.28;;;20.25;92.73
73063;BME280;61230;46.328;19.972;2023-09-19T05:04:15;100175.34;;;20.18;93.93
73063;BME280;61230;46.328;19.972;2023-09-19T05:06:43;100168.34;;;20.17;94.30
73063;BME280;61230;46.328;19.972;2023-09-19T05:09:13;100164.06;;;20.09;94.85
73063;BME280;61230;46.328;19.972;2023-09-19T05:11:41;100180.09;;;20.09;95.37
73063;BME280;61230;46.328;19.972;2023-09-19T05:14:08;100175.75;;;20.01;96.18
73063;BME280;61230;46.328;19.972;2023-09-19T05:16:36;100167.31;;;19.98;96.82
73063;BME280;61230;46.328;19.972;2023-09-19T05:19:04;100164.47;;;19.93;97.22
73063;BME280;61230;46.328;19.972;2023-09-19T05:21:31;100170.03;;;19.91;97.48
73063;BME280;61230;46.328;19.972;2023-09-19T05:24:00;100167.78;;;19.88;97.53
73063;BME280;61230;46.328;19.972;2023-09-19T05:26:28;100174.75;;;19.89;97.87
73063;BME280;61230;46.328;19.972;2023-09-19T05:28:55;100187.91;;;19.91;97.35
73063;BME280;61230;46.328;19.972;2023-09-19T05:31:24;100197.16;;;19.95;97.11
73063;BME280;61230;46.328;19.972;2023-09-19T05:33:53;100191.59;;;19.96;96.98
73063;BME280;61230;46.328;19.972;2023-09-19T05:36:22;100190.34;;;19.92;96.72
73063;BME280;61230;46.328;19.972;2023-09-19T05:38:50;100187.69;;;19.92;96.89
73063;BME280;61230;46.328;19.972;2023-09-19T05:41:18;100152.78;;;19.68;96.51
73063;BME280;61230;46.328;19.972;2023-09-19T05:43:49;100182.56;;;19.91;96.40
73063;BME280;61230;46.328;19.972;2023-09-19T05:46:17;100192.22;;;19.92;96.53
73063;BME280;61230;46.328;19.972;2023-09-19T05:48:46;100196.13;;;19.89;96.32
73063;BME280;61230;46.328;19.972;2023-09-19T05:51:20;100190.34;;;19.99;95.74
73063;BME280;61230;46.328;19.972;2023-09-19T05:53:53;100182.53;;;20.04;94.77
73063;BME280;61230;46.328;19.972;2023-09-19T05:56:23;100183.34;;;20.04;94.58
73063;BME280;61230;46.328;19.972;2023-09-19T05:58:51;100189.91;;;20.15;93.61
73063;BME280;61230;46.328;19.972;2023-09-19T06:01:19;100144.09;;;20.12;92.13
73063;BME280;61230;46.328;19.972;2023-09-19T06:03:48;100186.19;;;20.36;91.59
73063;BME280;61230;46.328;19.972;2023-09-19T06:06:18;100179.59;;;20.45;89.61
73063;BME280;61230;46.328;19.972;2023-09-19T06:08:46;100176.28;;;20.56;88.04
73063;BME280;61230;46.328;19.972;2023-09-19T06:11:14;100183.22;;;20.70;86.25
73063;BME280;61230;46.328;19.972;2023-09-19T06:13:42;100179.87;;;20.81;84.73
73063;BME280;61230;46.328;19.972;2023-09-19T06:16:10;100144.34;;;20.68;83.91
73063;BME280;61230;46.328;19.972;2023-09-19T06:18:37;100187.78;;;21.01;82.91
73063;BME280;61230;46.328;19.972;2023-09-19T06:21:06;100196.22;;;21.04;81.90
73063;BME280;61230;46.328;19.972;2023-09-19T06:23:35;100152.87;;;20.89;81.30
73063;BME280;61230;46.328;19.972;2023-09-19T06:26:03;100191.62;;;21.25;80.78
73063;BME280;61230;46.328;19.972;2023-09-19T06:28:34;100198.78;;;21.31;80.43
73063;BME280;61230;46.328;19.972;2023-09-19T06:31:04;100202.16;;;21.51;79.55
73063;BME280;61230;46.328;19.972;2023-09-19T06:33:37;100199.97;;;21.66;78.66
73063;BME280;61230;46.328;19.972;2023-09-19T06:36:07;100201.47;;;21.87;77.83
73063;BME280;61230;46.328;19.972;2023-09-19T06:38:34;100194.91;;;22.07;77.00
73063;BME280;61230;46.328;19.972;2023-09-19T06:41:03;100200.59;;;22.17;77.03
73063;BME280;61230;46.328;19.972;2023-09-19T06:43:32;100197.84;;;22.24;75.88
73063;BME280;61230;46.328;19.972;2023-09-19T06:46:01;100197.91;;;22.17;75.27
73063;BME280;61230;46.328;19.972;2023-09-19T06:48:30;100197.03;;;22.23;74.78
73063;BME280;61230;46.328;19.972;2023-09-19T06:50:58;100191.94;;;22.33;74.16
73063;BME280;61230;46.328;19.972;2023-09-19T06:53:25;100200.00;;;22.33;74.43
73063;BME280;61230;46.328;19.972;2023-09-19T06:55:53;100200.06;;;22.45;74.60
73063;BME280;61230;46.328;19.972;2023-09-19T06:58:21;100191.47;;;22.61;74.33
73063;BME280;61230;46.328;19.972;2023-09-19T07:00:49;100145.72;;;22.38;73.61
73063;BME280;61230;46.328;19.972;2023-09-19T07:03:17;100180.06;;;22.66;74.30
73063;BME280;61230;46.328;19.972;2023-09-19T07:05:48;100182.75;;;22.84;75.51
73063;BME280;61230;46.328;19.972;2023-09-19T07:08:16;100181.22;;;22.88;74.52
73063;BME280;61230;46.328;19.972;2023-09-19T07:10:44;100161.00;;;22.56;73.72
73063;BME280;61230;46.328;19.972;2023-09-19T07:13:21;100187.22;;;22.72;72.69
73063;BME280;61230;46.328;19.972;2023-09-19T07:15:49;100170.06;;;22.55;72.72
73063;BME280;61230;46.328;19.972;2023-09-19T07:18:18;100196.81;;;22.79;73.21
73063;BME280;61230;46.328;19.972;2023-09-19T07:20:46;100195.53;;;22.82;72.57
73063;BME280;61230;46.328;19.972;2023-09-19T07:23:18;100195.72;;;22.87;71.85
73063;BME280;61230;46.328;19.972;2023-09-19T07:25:48;100202.13;;;22.86;72.29
73063;BME280;61230;46.328;19.972;2023-09-19T07:28:16;100182.59;;;22.79;72.16
73063;BME280;61230;46.328;19.972;2023-09-19T07:30:44;100196.87;;;22.91;71.92
73063;BME280;61230;46.328;19.972;2023-09-19T07:33:11;100201.03;;;23.05;71.87
73063;BME280;61230;46.328;19.972;2023-09-19T07:35:39;100198.78;;;23.02;71.83
73063;BME280;61230;46.328;19.972;2023-09-19T07:38:07;100202.53;;;23.01;71.50
73063;BME280;61230;46.328;19.972;2023-09-19T07:40:35;100202.94;;;23.16;71.56
73063;BME280;61230;46.328;19.972;2023-09-19T07:43:04;100208.91;;;23.48;71.75
73063;BME280;61230;46.328;19.972;2023-09-19T07:45:32;100207.44;;;23.52;71.12
73063;BME280;61230;46.328;19.972;2023-09-19T07:48:00;100212.69;;;23.59;70.11
73063;BME280;61230;46.328;19.972;2023-09-19T07:50:34;100184.56;;;23.61;69.20
73063;BME280;61230;46.328;19.972;2023-09-19T07:53:04;100222.44;;;23.94;67.81
73063;BME280;61230;46.328;19.972;2023-09-19T07:55:33;100212.53;;;24.18;67.59
73063;BME280;61230;46.328;19.972;2023-09-19T07:58:01;100222.72;;;24.28;66.41
73063;BME280;61230;46.328;19.972;2023-09-19T08:00:31;100224.22;;;24.35;66.84
73063;BME280;61230;46.328;19.972;2023-09-19T08:03:02;100228.56;;;24.36;66.96
73063;BME280;61230;46.328;19.972;2023-09-19T08:05:43;100242.72;;;24.43;66.06
73063;BME280;61230;46.328;19.972;2023-09-19T08:08:11;100235.94;;;24.29;66.58
73063;BME280;61230;46.328;19.972;2023-09-19T08:10:43;100250.06;;;24.25;66.11
73063;BME280;61230;46.328;19.972;2023-09-19T08:13:14;100233.56;;;24.10;66.73
73063;BME280;61230;46.328;19.972;2023-09-19T08:15:43;100264.91;;;24.27;66.61
73063;BME280;61230;46.328;19.972;2023-09-19T08:18:12;100281.41;;;24.19;67.54
73063;BME280;61230;46.328;19.972;2023-09-19T08:20:40;100263.56;;;23.83;69.14
73063;BME280;61230;46.328;19.972;2023-09-19T08:23:09;100244.72;;;23.72;69.25
73063;BME280;61230;46.328;19.972;2023-09-19T08:25:37;100283.66;;;23.81;72.86
73063;BME280;61230;46.328;19.972;2023-09-19T08:28:07;100301.69;;;23.62;77.36
73063;BME280;61230;46.328;19.972;2023-09-19T08:30:41;100290.78;;;23.27;80.08
73063;BME280;61230;46.328;19.972;2023-09-19T08:33:09;100301.47;;;23.16;81.37
73063;BME280;61230;46.328;19.972;2023-09-19T08:35:38;100306.59;;;22.99;81.34
73063;BME280;61230;46.328;19.972;2023-09-19T08:38:07;100307.72;;;22.92;82.35
73063;BME280;61230;46.328;19.972;2023-09-19T08:40:38;100318.19;;;22.81;83.70
73063;BME280;61230;46.328;19.972;2023-09-19T08:43:08;100318.53;;;22.85;84.46
73063;BME280;61230;46.328;19.972;2023-09-19T08:45:36;100277.13;;;22.56;86.65
73063;BME280;61230;46.328;19.972;2023-09-19T08:50:42;100329.19;;;22.73;87.60
73063;BME280;61230;46.328;19.972;2023-09-19T08:53:11;100326.59;;;22.67;88.61
73063;BME280;61230;46.328;19.972;2023-09-19T08:55:43;100336.00;;;22.76;88.54
73063;BME280;61230;46.328;19.972;2023-09-19T08:58:14;100332.13;;;22.90;88.56
73063;BME280;61230;46.328;19.972;2023-09-19T09:00:48;100346.56;;;23.25;88.25
73063;BME280;61230;46.328;19.972;2023-09-19T09:03:17;100359.09;;;23.13;88.45
73063;BME280;61230;46.328;19.972;2023-09-19T09:05:47;100376.69;;;22.91;92.24
73063;BME280;61230;46.328;19.972;2023-09-19T09:08:19;100370.56;;;22.84;94.22
73063;BME280;61230;46.328;19.972;2023-09-19T09:10:50;100368.19;;;22.76;96.07
73063;BME280;61230;46.328;19.972;2023-09-19T09:13:18;100368.69;;;22.35;96.92
73063;BME280;61230;46.328;19.972;2023-09-19T09:15:46;100340.12;;;22.22;96.84
73063;BME280;61230;46.328;19.972;2023-09-19T09:18:14;100386.91;;;23.01;94.02
73063;BME280;61230;46.328;19.972;2023-09-19T09:20:42;100392.19;;;22.89;89.31
73063;BME280;61230;46.328;19.972;2023-09-19T09:23:12;100388.03;;;22.68;89.99
73063;BME280;61230;46.328;19.972;2023-09-19T09:25:54;100383.81;;;22.29;91.72
73063;BME280;61230;46.328;19.972;2023-09-19T09:28:27;100346.97;;;22.18;92.01
73063;BME280;61230;46.328;19.972;2023-09-19T09:31:00;100350.16;;;22.58;91.56
73063;BME280;61230;46.328;19.972;2023-09-19T09:33:30;100397.16;;;22.36;93.79
73063;BME280;61230;46.328;19.972;2023-09-19T09:35:59;100393.37;;;22.19;95.23
73063;BME280;61230;46.328;19.972;2023-09-19T09:38:43;100396.34;;;22.36;93.45
73063;BME280;61230;46.328;19.972;2023-09-19T09:41:11;100406.91;;;21.99;95.34
73063;BME280;61230;46.328;19.972;2023-09-19T09:43:43;100411.03;;;21.95;93.66
73063;BME280;61230;46.328;19.972;2023-09-19T09:46:16;100421.25;;;21.67;94.55
73063;BME280;61230;46.328;19.972;2023-09-19T09:49:22;100409.19;;;21.32;93.95
73063;BME280;61230;46.328;19.972;2023-09-19T09:54:29;100401.88;;;21.65;93.07
73063;BME280;61230;46.328;19.972;2023-09-19T09:57:11;100402.25;;;21.75;90.99
73063;BME280;61230;46.328;19.972;2023-09-19T10:02:18;100401.31;;;22.01;87.96
73063;BME280;61230;46.328;19.972;2023-09-19T10:04:52;100397.94;;;22.12;87.94
73063;BME280;61230;46.328;19.972;2023-09-19T10:07:47;100402.87;;;22.15;87.66
73063;BME280;61230;46.328;19.972;2023-09-19T10:10:37;100400.47;;;22.31;86.51
73063;BME280;61230;46.328;19.972;2023-09-19T10:13:12;100408.47;;;22.13;83.95
73063;BME280;61230;46.328;19.972;2023-09-19T10:15:44;100412.09;;;21.81;85.53
73063;BME280;61230;46.328;19.972;2023-09-19T10:18:24;100415.97;;;21.98;85.23
73063;BME280;61230;46.328;19.972;2023-09-19T10:20:52;100410.22;;;22.26;84.28
73063;BME280;61230;46.328;19.972;2023-09-19T10:23:21;100415.63;;;22.19;82.65
73063;BME280;61230;46.328;19.972;2023-09-19T10:25:57;100373.94;;;22.23;80.78
73063;BME280;61230;46.328;19.972;2023-09-19T10:28:29;100371.34;;;22.42;78.96
73063;BME280;61230;46.328;19.972;2023-09-19T10:30:59;100399.78;;;22.43;79.12
73063;BME280;61230;46.328;19.972;2023-09-19T10:33:35;100393.81;;;22.41;78.04
73063;BME280;61230;46.328;19.972;2023-09-19T10:36:05;100388.38;;;22.78;77.36
73063;BME280;61230;46.328;19.972;2023-09-19T10:38:33;100399.03;;;22.85;75.17
73063;BME280;61230;46.328;19.972;2023-09-19T10:41:03;100402.69;;;22.90;74.69
73063;BME280;61230;46.328;19.972;2023-09-19T10:43:33;100358.78;;;22.60;73.52
73063;BME280;61230;46.328;19.972;2023-09-19T10:46:07;100398.44;;;22.83;72.77
73063;BME280;61230;46.328;19.972;2023-09-19T10:48:37;100388.09;;;22.86;72.41
73063;BME280;61230;46.328;19.972;2023-09-19T10:51:21;100382.06;;;22.42;73.20
73063;BME280;61230;46.328;19.972;2023-09-19T10:53:59;100351.16;;;22.64;72.16
73063;BME280;61230;46.328;19.972;2023-09-19T10:56:36;100388.00;;;22.75;71.08
73063;BME280;61230;46.328;19.972;2023-09-19T10:59:09;100385.41;;;22.62;72.15
73063;BME280;61230;46.328;19.972;2023-09-19T11:04:32;100374.62;;;22.93;69.51
73063;BME280;61230;46.328;19.972;2023-09-19T11:07:08;100357.25;;;22.96;69.76
73063;BME280;61230;46.328;19.972;2023-09-19T11:09:53;100375.06;;;22.90;70.39
73063;BME280;61230;46.328;19.972;2023-09-19T11:26:49;100375.63;;;23.83;66.08
73063;BME280;61230;46.328;19.972;2023-09-19T11:29:25;100389.56;;;23.43;66.98
73063;BME280;61230;46.328;19.972;2023-09-19T11:31:55;100383.97;;;23.45;68.01
73063;BME280;61230;46.328;19.972;2023-09-19T11:40:20;100376.09;;;23.62;65.89
73063;BME280;61230;46.328;19.972;2023-09-19T11:42:49;100377.56;;;23.76;65.83
73063;BME280;61230;46.328;19.972;2023-09-19T11:48:26;100372.50;;;23.68;65.81
73063;BME280;61230;46.328;19.972;2023-09-19T11:50:55;100367.78;;;23.52;65.37
73063;BME280;61230;46.328;19.972;2023-09-19T11:53:22;100355.31;;;24.17;64.56
73063;BME280;61230;46.328;19.972;2023-09-19T11:55:51;100349.37;;;24.26;64.57
73063;BME280;61230;46.328;19.972;2023-09-19T11:58:20;100354.06;;;24.42;63.58
73063;BME280;61230;46.328;19.972;2023-09-19T12:00:54;100344.78;;;24.27;63.38
73063;BME280;61230;46.328;19.972;2023-09-19T12:03:29;100340.97;;;24.34;62.22
73063;BME280;61230;46.328;19.972;2023-09-19T12:05:58;100328.78;;;24.67;60.48
73063;BME280;61230;46.328;19.972;2023-09-19T12:08:27;100297.47;;;24.61;60.41
73063;BME280;61230;46.328;19.972;2023-09-19T12:14:23;100323.78;;;23.94;62.62
73063;BME280;61230;46.328;19.972;2023-09-19T12:17:47;100330.53;;;24.61;61.13
73063;BME280;61230;46.328;19.972;2023-09-19T12:21:07;100323.53;;;24.72;60.71
73063;BME280;61230;46.328;19.972;2023-09-19T12:23:39;100324.87;;;25.21;59.49
73063;BME280;61230;46.328;19.972;2023-09-19T12:26:10;100294.87;;;24.66;60.54
73063;BME280;61230;46.328;19.972;2023-09-19T12:28:43;100326.22;;;24.95;59.24
73063;BME280;61230;46.328;19.972;2023-09-19T12:31:11;100340.62;;;24.77;58.73
73063;BME280;61230;46.328;19.972;2023-09-19T12:33:40;100337.69;;;24.90;58.86
73063;BME280;61230;46.328;19.972;2023-09-19T12:36:34;100331.63;;;24.83;58.47
73063;BME280;61230;46.328;19.972;2023-09-19T12:39:03;100334.12;;;25.25;57.44
73063;BME280;61230;46.328;19.972;2023-09-19T12:41:37;100336.34;;;25.28;57.65
73063;BME280;61230;46.328;19.972;2023-09-19T12:44:06;100333.84;;;25.49;57.56
73063;BME280;61230;46.328;19.972;2023-09-19T12:46:37;100335.78;;;25.65;56.57
73063;BME280;61230;46.328;19.972;2023-09-19T12:49:20;100332.22;;;25.48;56.47
73063;BME280;61230;46.328;19.972;2023-09-19T12:51:48;100342.59;;;25.05;57.66
73063;BME280;61230;46.328;19.972;2023-09-19T12:54:16;100328.78;;;24.67;58.04
73063;BME280;61230;46.328;19.972;2023-09-19T12:56:44;100337.56;;;24.74;58.47
73063;BME280;61230;46.328;19.972;2023-09-19T12:59:13;100344.12;;;25.01;58.10
73063;BME280;61230;46.328;19.972;2023-09-19T13:01:42;100354.31;;;24.99;56.66
73063;BME280;61230;46.328;19.972;2023-09-19T13:04:19;100338.41;;;24.63;56.49
73063;BME280;61230;46.328;19.972;2023-09-19T13:06:52;100343.03;;;25.25;55.99
73063;BME280;61230;46.328;19.972;2023-09-19T13:09:22;100344.00;;;25.07;55.67
73063;BME280;61230;46.328;19.972;2023-09-19T13:11:52;100343.78;;;24.97;55.58
73063;BME280;61230;46.328;19.972;2023-09-19T13:14:26;100345.87;;;24.84;55.75
73063;BME280;61230;46.328;19.972;2023-09-19T13:17:08;100350.50;;;25.23;55.84
73063;BME280;61230;46.328;19.972;2023-09-19T13:25:18;100344.91;;;25.13;55.56
73063;BME280;61230;46.328;19.972;2023-09-19T13:27:53;100303.59;;;25.07;53.16
73063;BME280;61230;46.328;19.972;2023-09-19T13:30:25;100326.50;;;25.33;52.18
73063;BME280;61230;46.328;19.972;2023-09-19T13:33:09;100344.88;;;25.36;52.09
73063;BME280;61230;46.328;19.972;2023-09-19T13:35:38;100333.97;;;25.43;51.25
73063;BME280;61230;46.328;19.972;2023-09-19T13:38:07;100325.63;;;25.44;51.21
73063;BME280;61230;46.328;19.972;2023-09-19T13:40:39;100327.28;;;25.45;51.61
73063;BME280;61230;46.328;19.972;2023-09-19T13:43:09;100298.53;;;25.23;51.30
73063;BME280;61230;46.328;19.972;2023-09-19T13:45:38;100331.03;;;25.44;50.95
73063;BME280;61230;46.328;19.972;2023-09-19T13:48:09;100329.03;;;25.51;51.18
73063;BME280;61230;46.328;19.972;2023-09-19T13:50:38;100327.56;;;25.60;51.57
73063;BME280;61230;46.328;19.972;2023-09-19T13:53:09;100334.09;;;25.36;51.62
73063;BME280;61230;46.328;19.972;2023-09-19T13:55:37;100299.41;;;25.11;51.23
73063;BME280;61230;46.328;19.972;2023-09-19T13:58:05;100340.00;;;25.10;51.71